Arch Cape, Oregon
Current Conditions -  °F | °C
As of 10:15 PM on Monday 20 Oct 2014 (Local Time) from KAST Reporting Station
Broken Clouds Broken Clouds  
Wind Chill: 57°   Ceiling: 2700
Heat Index: 57°   Visibility: 10mi
Dew Point: 52°   Wind: 10mph
Humidity: 83%   Direction: 170°S
Pressure: 29.79"   Gusts: NA
Location:  45.8°N, 123.96°W
Report Text: KAST 210515Z AUTO 17009KT 10SM BKN027 BKN039 14/11 A2979 RMK AO2 T01390111
Loading
Personal Weather Stations






























Interactive Weather Map
Tropical Storm Tracking
New forecast layout! Learn more

10-Day Weather Forecast

Advertisements
Track Severe Weather on mobile